createdAt,value
2023-02-08T00:00:35.630Z,9.15
2023-02-08T00:03:02.316Z,9.85
2023-02-08T00:05:28.937Z,8.80
2023-02-08T00:07:55.627Z,9.63
2023-02-08T00:10:22.320Z,9.52
2023-02-08T00:12:49.100Z,9.20
2023-02-08T00:15:15.771Z,9.70
2023-02-08T00:17:42.451Z,10.55
2023-02-08T00:20:09.896Z,10.02
2023-02-08T00:22:36.687Z,8.88
2023-02-08T00:25:03.516Z,9.88
2023-02-08T00:27:30.193Z,10.02
2023-02-08T00:29:56.902Z,10.45
2023-02-08T00:32:23.663Z,9.38
2023-02-08T00:34:50.702Z,9.88
2023-02-08T00:37:17.749Z,10.27
2023-02-08T00:39:44.405Z,9.43
2023-02-08T00:42:11.061Z,10.02
2023-02-08T00:44:39.463Z,9.60
2023-02-08T00:47:06.158Z,10.07
2023-02-08T00:49:32.840Z,9.75
2023-02-08T00:51:59.607Z,9.60
2023-02-08T00:54:26.206Z,9.25
2023-02-08T00:56:52.858Z,9.68
2023-02-08T00:59:19.501Z,9.50
2023-02-08T01:01:46.239Z,9.25
2023-02-08T01:04:12.909Z,8.98
2023-02-08T01:06:40.006Z,8.45
2023-02-08T01:09:06.612Z,7.90
2023-02-08T01:11:33.527Z,9.25
2023-02-08T01:14:00.326Z,8.50
2023-02-08T01:16:30.278Z,8.45
2023-02-08T01:18:58.914Z,8.05
2023-02-08T01:21:31.510Z,8.32
2023-02-08T01:23:58.862Z,7.82
2023-02-08T01:26:26.392Z,9.00
2023-02-08T01:28:54.453Z,7.72
2023-02-08T01:31:29.065Z,8.25
2023-02-08T01:33:57.095Z,8.90
2023-02-08T01:36:24.997Z,9.20
2023-02-08T01:38:52.291Z,8.63
2023-02-08T01:41:31.299Z,9.13
2023-02-08T01:44:28.578Z,10.55
2023-02-08T01:46:55.272Z,10.00
2023-02-08T01:49:31.982Z,10.05
2023-02-08T01:52:01.026Z,10.02
2023-02-08T01:54:33.217Z,9.98
2023-02-08T01:56:59.891Z,8.35
2023-02-08T01:59:34.082Z,9.48
2023-02-08T02:02:04.324Z,9.80
2023-02-08T02:04:31.150Z,10.43
2023-02-08T02:07:00.422Z,9.57
2023-02-08T02:10:02.877Z,10.63
2023-02-08T02:12:33.163Z,11.48
2023-02-08T02:15:02.699Z,9.80
2023-02-08T02:17:30.025Z,9.38
2023-02-08T02:20:02.828Z,10.50
2023-02-08T02:22:32.577Z,10.45
2023-02-08T02:25:12.596Z,11.48
2023-02-08T02:28:00.960Z,9.45
2023-02-08T02:30:51.790Z,10.75
2023-02-08T02:33:44.611Z,10.32
2023-02-08T02:36:41.029Z,10.00
2023-02-08T02:42:45.019Z,9.18
2023-02-08T02:45:20.650Z,8.73
2023-02-08T02:50:54.794Z,10.10
2023-02-08T02:53:36.675Z,9.23
2023-02-08T02:56:14.185Z,9.25
2023-02-08T02:58:42.555Z,9.43
2023-02-08T03:01:09.280Z,9.02
2023-02-08T03:03:35.987Z,9.02
2023-02-08T03:06:10.470Z,8.98
2023-02-08T03:08:55.875Z,8.80
2023-02-08T03:11:28.658Z,10.65
2023-02-08T03:14:19.617Z,9.40
2023-02-08T03:17:02.458Z,9.13
2023-02-08T03:19:47.923Z,9.63
2023-02-08T03:22:23.773Z,9.82
2023-02-08T03:24:59.402Z,10.43
2023-02-08T03:30:33.392Z,10.18
2023-02-08T03:33:11.607Z,9.77
2023-02-08T03:35:48.822Z,10.07
2023-02-08T03:38:33.821Z,10.82
2023-02-08T03:41:04.409Z,10.02
2023-02-08T03:43:38.213Z,11.07
2023-02-08T03:46:14.551Z,10.82
2023-02-08T03:48:46.193Z,11.48
2023-02-08T03:51:15.641Z,10.07
2023-02-08T03:53:45.661Z,10.05
2023-02-08T03:56:30.812Z,10.65
2023-02-08T03:59:04.149Z,9.93
2023-02-08T04:01:36.862Z,9.57
2023-02-08T04:04:03.772Z,11.15
2023-02-08T04:06:30.589Z,11.48
2023-02-08T04:08:57.417Z,9.32
2023-02-08T04:11:24.001Z,9.88
2023-02-08T04:13:50.666Z,10.02
2023-02-08T04:16:17.299Z,9.55
2023-02-08T04:18:43.910Z,10.18
2023-02-08T04:21:10.505Z,9.05
2023-02-08T04:23:37.133Z,8.77
2023-02-08T04:26:04.219Z,10.05
2023-02-08T04:28:31.592Z,9.45
2023-02-08T04:30:58.387Z,9.50
2023-02-08T04:33:25.126Z,10.55
2023-02-08T04:35:52.386Z,10.05
2023-02-08T04:38:19.035Z,9.65
2023-02-08T04:40:45.644Z,9.98
2023-02-08T04:43:12.292Z,10.93
2023-02-08T04:45:38.944Z,10.10
2023-02-08T04:48:07.337Z,10.35
2023-02-08T04:50:35.938Z,10.75
2023-02-08T04:53:02.664Z,10.35
2023-02-08T04:55:29.397Z,10.43
2023-02-08T04:57:56.126Z,10.25
2023-02-08T05:00:22.823Z,10.77
2023-02-08T05:02:57.080Z,10.98
2023-02-08T05:05:26.103Z,10.50
2023-02-08T05:07:52.770Z,10.32
2023-02-08T05:10:19.893Z,10.60
2023-02-08T05:12:47.386Z,10.27
2023-02-08T05:15:14.315Z,10.20
2023-02-08T05:17:40.950Z,10.10
2023-02-08T05:20:08.888Z,10.90
2023-02-08T05:22:36.067Z,11.50
2023-02-08T05:25:03.352Z,10.98
2023-02-08T05:27:30.194Z,9.73
2023-02-08T05:29:58.947Z,10.63
2023-02-08T05:32:25.989Z,10.88
2023-02-08T05:34:52.747Z,10.98
2023-02-08T05:37:19.467Z,10.60
2023-02-08T05:39:46.318Z,10.73
2023-02-08T05:42:13.102Z,10.77
2023-02-08T05:44:40.055Z,10.63
2023-02-08T05:47:06.782Z,10.48
2023-02-08T05:49:33.601Z,9.07
2023-02-08T05:52:00.184Z,10.93
2023-02-08T05:54:26.970Z,10.65
2023-02-08T05:56:53.645Z,11.13
2023-02-08T05:59:20.404Z,10.27
2023-02-08T06:01:47.017Z,9.95
2023-02-08T06:04:15.050Z,9.88
2023-02-08T06:06:41.831Z,10.75
2023-02-08T06:09:08.459Z,12.60
2023-02-08T06:11:36.215Z,11.38
2023-02-08T06:14:03.422Z,12.10
2023-02-08T06:16:30.124Z,12.13
2023-02-08T06:18:57.004Z,11.07
2023-02-08T06:21:24.542Z,12.18
2023-02-08T06:23:51.292Z,12.73
2023-02-08T06:26:17.968Z,13.68
2023-02-08T06:28:44.822Z,13.85
2023-02-08T06:31:11.398Z,14.13
2023-02-08T06:33:38.061Z,13.88
2023-02-08T06:36:04.882Z,14.18
2023-02-08T06:38:31.524Z,14.85
2023-02-08T06:40:58.258Z,13.45
2023-02-08T06:43:25.740Z,14.40
2023-02-08T06:45:52.410Z,14.63
2023-02-08T06:48:19.056Z,14.40
2023-02-08T06:50:45.666Z,14.85
2023-02-08T06:53:12.528Z,12.68
2023-02-08T06:55:39.548Z,13.70
2023-02-08T06:58:06.326Z,12.82
2023-02-08T07:00:32.967Z,12.93
2023-02-08T07:03:00.851Z,12.63
2023-02-08T07:05:27.919Z,13.60
2023-02-08T07:07:54.635Z,13.65
2023-02-08T07:10:21.366Z,11.75
2023-02-08T07:12:47.989Z,12.52
2023-02-08T07:15:14.662Z,13.75
2023-02-08T07:17:41.438Z,12.95
2023-02-08T07:20:08.959Z,12.32
2023-02-08T07:22:35.638Z,12.77
2023-02-08T07:25:02.267Z,12.57
2023-02-08T07:27:29.106Z,11.82
2023-02-08T07:29:56.009Z,12.80
2023-02-08T07:32:22.928Z,12.38
2023-02-08T07:34:49.535Z,13.48
2023-02-08T07:37:16.422Z,14.40
2023-02-08T07:39:43.070Z,13.20
2023-02-08T07:42:10.426Z,12.98
2023-02-08T07:44:49.190Z,14.05
2023-02-08T07:47:17.092Z,12.75
2023-02-08T07:49:43.744Z,13.50
2023-02-08T07:52:10.480Z,13.05
2023-02-08T07:54:37.073Z,12.93
2023-02-08T07:57:03.950Z,13.75
2023-02-08T07:59:30.686Z,12.65
2023-02-08T08:01:57.383Z,12.57
2023-02-08T08:04:24.053Z,13.65
2023-02-08T08:06:51.578Z,13.43
2023-02-08T08:09:20.207Z,13.75
2023-02-08T08:11:46.863Z,12.80
2023-02-08T08:14:13.714Z,13.13
2023-02-08T08:16:40.951Z,12.13
2023-02-08T09:11:16.921Z,16.75
2023-02-08T09:13:44.016Z,17.15
2023-02-08T09:16:16.860Z,16.77
2023-02-08T09:18:44.472Z,16.23
2023-02-08T09:21:20.056Z,14.55
2023-02-08T09:23:50.503Z,15.70
2023-02-08T09:26:19.027Z,15.50
2023-02-08T09:28:46.177Z,14.38
2023-02-08T09:31:26.429Z,15.00
2023-02-08T09:33:55.608Z,15.30
2023-02-08T09:36:23.578Z,14.23
2023-02-08T09:38:51.655Z,15.98
2023-02-08T09:41:54.930Z,14.27
2023-02-08T09:44:43.048Z,14.30
2023-02-08T09:47:32.972Z,13.95
2023-02-08T09:50:20.236Z,15.50
2023-02-08T09:52:52.593Z,14.85
2023-02-08T09:55:21.925Z,14.68
2023-02-08T09:57:51.691Z,15.65
2023-02-08T10:00:25.163Z,15.48
2023-02-08T10:02:54.152Z,14.65
2023-02-08T10:05:24.962Z,14.73
2023-02-08T10:07:51.785Z,16.30
2023-02-08T10:10:38.900Z,16.45
2023-02-08T10:13:19.391Z,14.88
2023-02-08T10:16:08.361Z,14.02
2023-02-08T10:18:58.463Z,13.88
2023-02-08T10:21:37.543Z,14.50
2023-02-08T10:24:04.181Z,14.18
2023-02-08T10:26:33.655Z,15.70
2023-02-08T10:29:47.352Z,15.60
2023-02-08T10:32:13.892Z,13.65
2023-02-08T10:34:55.520Z,13.85
2023-02-08T10:37:34.812Z,13.73
2023-02-08T10:40:21.035Z,13.65
2023-02-08T10:42:52.027Z,14.40
2023-02-08T10:45:30.113Z,14.68
2023-02-08T10:48:01.787Z,15.77
2023-02-08T10:50:47.538Z,15.40
2023-02-08T10:53:17.159Z,15.40
2023-02-08T10:55:46.285Z,13.95
2023-02-08T10:58:20.162Z,15.27
2023-02-08T11:00:49.744Z,16.13
2023-02-08T11:03:23.107Z,15.75
2023-02-08T11:05:50.415Z,15.90
2023-02-08T11:08:22.876Z,14.80
2023-02-08T11:11:03.976Z,14.52
2023-02-08T11:13:43.366Z,13.75
2023-02-08T11:16:13.531Z,13.48
2023-02-08T11:18:48.406Z,14.23
2023-02-08T11:21:33.345Z,14.27
2023-02-08T11:24:03.160Z,13.05
2023-02-08T11:26:36.575Z,13.05
2023-02-08T11:29:13.932Z,13.82
2023-02-08T11:31:56.563Z,13.45
2023-02-08T11:34:26.410Z,11.57
2023-02-08T11:36:53.462Z,11.02
2023-02-08T11:39:27.151Z,10.00
2023-02-08T11:41:57.528Z,10.45
2023-02-08T11:44:33.839Z,10.88
2023-02-08T11:47:06.758Z,10.38
2023-02-08T11:49:44.775Z,9.82
2023-02-08T11:52:40.613Z,9.55
2023-02-08T11:55:19.559Z,10.25
2023-02-08T11:57:58.472Z,10.10
2023-02-08T12:00:31.859Z,10.75
2023-02-08T12:03:08.058Z,10.63
2023-02-08T12:06:01.006Z,10.88
2023-02-08T12:08:41.009Z,10.38
2023-02-08T12:11:29.142Z,10.35
2023-02-08T12:14:04.454Z,10.43
2023-02-08T12:16:51.335Z,10.30
2023-02-08T12:19:33.765Z,9.27
2023-02-08T12:22:11.129Z,10.25
2023-02-08T12:24:48.038Z,10.13
2023-02-08T12:27:31.067Z,9.45
2023-02-08T12:30:13.995Z,10.20
2023-02-08T12:33:16.783Z,9.85
2023-02-08T12:36:04.218Z,9.38
2023-02-08T12:39:18.901Z,9.27
2023-02-08T12:42:10.166Z,10.27
2023-02-08T12:45:03.354Z,9.07
2023-02-08T12:47:35.627Z,9.60
2023-02-08T12:50:09.200Z,9.57
2023-02-08T12:52:39.026Z,9.63
2023-02-08T12:55:05.692Z,9.85
2023-02-08T12:57:33.284Z,10.00
2023-02-08T13:00:15.729Z,9.93
2023-02-08T13:02:57.312Z,9.40
2023-02-08T13:05:29.037Z,9.23
2023-02-08T13:08:03.787Z,9.90
2023-02-08T13:10:38.528Z,9.40
2023-02-08T13:13:15.516Z,9.07
2023-02-08T13:15:52.290Z,9.70
2023-02-08T13:18:23.344Z,9.77
2023-02-08T13:20:58.163Z,8.82
2023-02-08T13:23:29.828Z,8.75
2023-02-08T13:26:01.267Z,10.50
2023-02-08T13:28:28.431Z,9.63
2023-02-08T13:31:07.165Z,9.98
2023-02-08T13:33:59.326Z,10.00
2023-02-08T13:36:34.012Z,9.75
2023-02-08T13:39:02.774Z,9.38
2023-02-08T13:41:31.057Z,9.05
2023-02-08T13:44:09.373Z,10.00
2023-02-08T13:46:48.631Z,9.90
2023-02-08T13:49:49.062Z,10.40
2023-02-08T13:52:47.127Z,8.88
2023-02-08T13:55:33.580Z,9.18
2023-02-08T13:58:15.387Z,10.02
2023-02-08T14:00:54.753Z,8.95
2023-02-08T14:03:29.547Z,9.13
2023-02-08T14:06:06.310Z,11.00
2023-02-08T14:08:39.080Z,10.73
2023-02-08T14:11:11.524Z,8.77
2023-02-08T14:14:02.694Z,11.00
2023-02-08T14:16:42.008Z,9.48
2023-02-08T14:19:20.725Z,8.93
2023-02-08T14:21:58.599Z,9.63
2023-02-08T14:24:34.066Z,10.07
2023-02-08T14:27:11.560Z,10.20
2023-02-08T14:29:38.519Z,8.63
2023-02-08T14:32:05.513Z,9.95
2023-02-08T14:34:35.945Z,9.60
2023-02-08T14:37:17.846Z,9.75
2023-02-08T14:39:44.571Z,10.05
2023-02-08T14:42:13.893Z,9.70
2023-02-08T14:44:43.489Z,8.93
2023-02-08T14:47:35.290Z,9.07
2023-02-08T14:50:15.664Z,9.05
2023-02-08T14:52:52.730Z,8.77
2023-02-08T14:55:27.609Z,8.93
2023-02-08T14:57:58.052Z,8.65
2023-02-08T15:00:37.887Z,8.70
2023-02-08T15:03:12.020Z,8.90
2023-02-08T15:05:48.963Z,9.05
2023-02-08T15:08:20.976Z,9.68
2023-02-08T15:10:47.643Z,8.23
2023-02-08T15:13:26.918Z,8.25
2023-02-08T15:15:56.413Z,8.07
2023-02-08T15:18:31.077Z,9.90
2023-02-08T15:21:03.028Z,9.53
2023-02-08T15:23:30.869Z,9.07
2023-02-08T15:26:03.786Z,8.60
2023-02-08T15:28:33.813Z,9.68
2023-02-08T15:31:03.008Z,8.88
2023-02-08T15:33:29.790Z,9.13
2023-02-08T15:36:05.161Z,8.55
2023-02-08T15:38:34.292Z,8.95
2023-02-08T15:41:07.193Z,8.93
2023-02-08T15:43:35.415Z,8.27
2023-02-08T15:46:23.609Z,8.40
2023-02-08T15:48:51.483Z,9.60
2023-02-08T15:51:23.226Z,8.38
2023-02-08T15:53:55.771Z,9.20
2023-02-08T15:56:37.954Z,9.18
2023-02-08T15:59:14.532Z,8.95
2023-02-08T16:01:41.258Z,8.73
2023-02-08T16:04:12.405Z,9.40
2023-02-08T16:06:45.305Z,9.02
2023-02-08T16:09:22.145Z,9.05
2023-02-08T16:11:50.244Z,9.48
2023-02-08T16:14:19.267Z,10.10
2023-02-08T16:16:49.919Z,10.23
2023-02-08T16:19:21.747Z,9.35
2023-02-08T16:21:48.760Z,10.18
2023-02-08T16:24:15.346Z,10.65
2023-02-08T16:26:45.289Z,9.90
2023-02-08T16:29:21.483Z,10.65
2023-02-08T16:31:56.188Z,10.00
2023-02-08T16:34:23.276Z,9.95
2023-02-08T16:36:52.092Z,10.38
2023-02-08T16:39:18.726Z,9.98
2023-02-08T16:42:09.705Z,9.98
2023-02-08T16:45:01.290Z,8.82
2023-02-08T16:47:39.779Z,11.10
2023-02-08T16:50:08.017Z,10.70
2023-02-08T16:52:35.296Z,11.13
2023-02-08T16:55:02.789Z,11.85
2023-02-08T16:57:39.715Z,11.63
2023-02-08T17:00:32.162Z,12.07
2023-02-08T17:03:00.288Z,12.82
2023-02-08T17:05:32.670Z,12.82
2023-02-08T17:08:00.421Z,13.02
2023-02-08T17:10:32.350Z,12.35
2023-02-08T17:13:18.817Z,14.13
2023-02-08T17:15:48.856Z,12.75
2023-02-08T17:18:15.640Z,12.63
2023-02-08T17:20:43.656Z,13.48
2023-02-08T17:23:11.535Z,13.75
2023-02-08T17:25:39.050Z,12.95
2023-02-08T17:28:08.864Z,13.65
2023-02-08T17:30:39.547Z,13.35
2023-02-08T17:33:07.507Z,13.48
2023-02-08T17:35:36.942Z,13.57
2023-02-08T17:38:04.952Z,15.05
2023-02-08T17:40:35.076Z,13.65
2023-02-08T17:43:02.645Z,13.88
2023-02-08T17:45:29.503Z,14.27
2023-02-08T17:47:59.851Z,14.40
2023-02-08T17:50:27.106Z,15.18
2023-02-08T17:52:54.174Z,16.10
2023-02-08T17:55:21.461Z,14.65
2023-02-08T17:57:48.437Z,13.82
2023-02-08T18:00:20.396Z,14.48
2023-02-08T18:02:52.771Z,13.38
2023-02-08T18:05:23.069Z,13.38
2023-02-08T18:07:51.344Z,12.48
2023-02-08T18:10:18.241Z,14.10
2023-02-08T18:12:45.245Z,14.05
2023-02-08T18:15:14.541Z,14.25
2023-02-08T18:17:42.289Z,13.85
2023-02-08T18:20:11.646Z,13.88
2023-02-08T18:22:38.857Z,14.13
2023-02-08T18:25:06.157Z,15.02
2023-02-08T18:27:32.871Z,13.35
2023-02-08T18:30:00.170Z,14.85
2023-02-08T18:32:28.134Z,13.95
2023-02-08T18:34:55.879Z,13.77
2023-02-08T18:37:23.193Z,13.95
2023-02-08T18:39:51.309Z,13.20
2023-02-08T18:42:18.222Z,13.20
2023-02-08T18:44:45.629Z,12.32
2023-02-08T18:47:12.426Z,13.35
2023-02-08T18:49:41.892Z,11.93
2023-02-08T18:52:11.540Z,11.63
2023-02-08T18:54:39.699Z,11.98
2023-02-08T18:57:09.469Z,11.77
2023-02-08T18:59:39.175Z,12.15
2023-02-08T19:02:07.849Z,11.75
2023-02-08T19:04:38.944Z,11.32
2023-02-08T19:07:06.919Z,11.75
2023-02-08T19:09:38.314Z,12.07
2023-02-08T19:12:05.801Z,11.52
2023-02-08T19:14:32.440Z,14.13
2023-02-08T19:17:00.099Z,14.23
2023-02-08T19:19:27.221Z,14.05
2023-02-08T19:21:53.952Z,13.80
2023-02-08T19:24:20.853Z,13.07
2023-02-08T19:26:48.132Z,14.23
2023-02-08T19:29:17.151Z,15.07
2023-02-08T19:31:44.600Z,13.63
2023-02-08T19:34:12.813Z,13.60
2023-02-08T19:36:49.444Z,12.95
2023-02-08T19:39:19.969Z,14.70
2023-02-08T19:41:47.508Z,14.00
2023-02-08T19:44:17.826Z,14.43
2023-02-08T19:46:53.705Z,15.80
2023-02-08T19:49:22.218Z,16.90
2023-02-08T19:51:48.962Z,14.45
2023-02-08T19:54:18.089Z,13.52
2023-02-08T19:56:45.346Z,13.80
2023-02-08T19:59:19.140Z,14.10
2023-02-08T20:01:46.338Z,12.35
2023-02-08T20:04:13.555Z,13.40
2023-02-08T20:06:40.712Z,13.23
2023-02-08T20:09:08.344Z,12.85
2023-02-08T20:11:45.135Z,14.00
2023-02-08T20:14:22.117Z,12.95
2023-02-08T20:16:48.999Z,13.02
2023-02-08T20:19:15.930Z,15.68
2023-02-08T20:21:44.568Z,14.77
2023-02-08T20:24:12.071Z,12.95
2023-02-08T20:26:40.552Z,12.90
2023-02-08T20:29:08.967Z,13.25
2023-02-08T20:31:38.129Z,12.55
2023-02-08T20:34:08.705Z,13.27
2023-02-08T20:36:40.397Z,13.23
2023-02-08T20:39:08.939Z,13.05
2023-02-08T20:41:35.662Z,11.88
2023-02-08T20:44:02.473Z,12.95
2023-02-08T20:46:33.796Z,13.23
2023-02-08T20:49:02.173Z,12.52
2023-02-08T20:51:29.962Z,14.23
2023-02-08T20:53:58.202Z,13.18
2023-02-08T20:56:35.939Z,11.82
2023-02-08T20:59:08.431Z,12.75
2023-02-08T21:01:36.452Z,12.13
2023-02-08T21:04:04.701Z,12.13
2023-02-08T21:06:34.007Z,12.82
2023-02-08T21:09:05.407Z,11.77
2023-02-08T21:11:33.500Z,13.32
2023-02-08T21:14:00.977Z,12.07
2023-02-08T21:16:28.172Z,12.07
2023-02-08T21:18:55.162Z,13.10
2023-02-08T21:21:21.929Z,13.55
2023-02-08T21:23:48.822Z,13.32
2023-02-08T21:26:18.561Z,12.18
2023-02-08T21:28:46.351Z,12.10
2023-02-08T21:31:22.011Z,13.30
2023-02-08T21:33:50.118Z,13.80
2023-02-08T21:36:19.430Z,13.10
2023-02-08T21:38:46.638Z,14.02
2023-02-08T21:41:20.373Z,13.07
2023-02-08T21:43:48.329Z,13.32
2023-02-08T21:46:15.529Z,12.48
2023-02-08T21:49:11.515Z,12.77
2023-02-08T21:51:57.017Z,13.77
2023-02-08T21:54:41.436Z,13.13
2023-02-08T21:57:15.768Z,13.13
2023-02-08T21:59:43.091Z,12.93
2023-02-08T22:02:36.604Z,13.85
2023-02-08T22:05:23.178Z,12.88
2023-02-08T22:07:54.407Z,13.27
2023-02-08T22:10:23.525Z,12.68
2023-02-08T22:12:52.458Z,12.88
2023-02-08T22:15:21.231Z,13.30
2023-02-08T22:17:48.022Z,13.13
2023-02-08T22:20:15.295Z,13.93
2023-02-08T22:22:41.881Z,11.77
2023-02-08T22:25:09.096Z,11.45
2023-02-08T22:27:35.740Z,11.73
2023-02-08T22:30:02.796Z,11.45
2023-02-08T22:32:29.476Z,12.25
2023-02-08T22:34:56.256Z,11.35
2023-02-08T22:37:23.012Z,11.90
2023-02-08T22:39:49.692Z,12.68
2023-02-08T22:42:16.348Z,10.88
2023-02-08T22:44:44.480Z,11.52
2023-02-08T22:47:12.772Z,10.68
2023-02-08T22:49:39.612Z,10.88
2023-02-08T22:52:08.692Z,11.43
2023-02-08T22:54:35.827Z,10.25
2023-02-08T22:57:02.767Z,10.65
2023-02-08T22:59:29.494Z,11.07
2023-02-08T23:01:56.213Z,10.98
2023-02-08T23:04:23.150Z,12.13
2023-02-08T23:06:50.756Z,11.63
2023-02-08T23:09:17.820Z,10.77
2023-02-08T23:11:44.416Z,10.93
2023-02-08T23:14:11.398Z,11.60
2023-02-08T23:16:38.480Z,10.88
2023-02-08T23:19:05.972Z,11.25
2023-02-08T23:21:32.779Z,11.32
2023-02-08T23:23:59.526Z,11.68
2023-02-08T23:26:26.195Z,10.35
2023-02-08T23:28:54.346Z,10.88
2023-02-08T23:31:22.087Z,12.38
2023-02-08T23:33:49.622Z,11.52
2023-02-08T23:36:19.239Z,11.38
2023-02-08T23:38:46.314Z,11.10
2023-02-08T23:41:20.836Z,10.63
2023-02-08T23:43:48.905Z,10.90
2023-02-08T23:46:24.158Z,11.52
2023-02-08T23:48:51.189Z,10.15
2023-02-08T23:51:20.840Z,10.75
2023-02-08T23:53:49.031Z,10.95
2023-02-08T23:56:17.492Z,12.38
2023-02-08T23:58:46.190Z,10.88
